createdAt,value
2018-07-04T00:02:31.101Z,16.54
2018-07-04T00:05:10.716Z,16.51
2018-07-04T00:07:50.212Z,16.47
2018-07-04T00:10:29.767Z,16.44
2018-07-04T00:13:09.473Z,16.38
2018-07-04T00:15:48.993Z,16.33
2018-07-04T00:18:28.626Z,16.29
2018-07-04T00:21:08.248Z,16.24
2018-07-04T00:23:47.805Z,16.20
2018-07-04T00:26:27.457Z,16.15
2018-07-04T00:29:06.956Z,16.10
2018-07-04T00:31:46.617Z,16.03
2018-07-04T00:34:26.271Z,15.98
2018-07-04T00:37:05.818Z,15.93
2018-07-04T00:39:45.391Z,15.88
2018-07-04T00:42:24.976Z,15.83
2018-07-04T00:45:04.644Z,15.79
2018-07-04T00:47:44.175Z,15.75
2018-07-04T00:50:23.828Z,15.71
2018-07-04T00:53:03.464Z,15.67
2018-07-04T00:55:42.984Z,15.64
2018-07-04T00:58:22.596Z,15.62
2018-07-04T01:01:02.208Z,15.58
2018-07-04T01:03:41.623Z,15.54
2018-07-04T01:06:21.220Z,15.50
2018-07-04T01:09:00.803Z,15.46
2018-07-04T01:11:40.332Z,15.42
2018-07-04T01:14:19.916Z,15.37
2018-07-04T01:16:59.568Z,15.31
2018-07-04T01:19:39.153Z,15.27
2018-07-04T01:22:18.668Z,15.22
2018-07-04T01:24:58.146Z,15.18
2018-07-04T01:27:37.656Z,15.15
2018-07-04T01:30:17.331Z,15.12
2018-07-04T01:32:56.815Z,15.09
2018-07-04T01:35:36.378Z,15.07
2018-07-04T01:38:15.926Z,15.03
2018-07-04T01:40:55.511Z,14.96
2018-07-04T01:43:35.147Z,14.90
2018-07-04T01:46:14.784Z,14.87
2018-07-04T01:48:54.384Z,14.86
2018-07-04T01:51:33.924Z,14.83
2018-07-04T01:54:13.451Z,14.79
2018-07-04T01:56:53.307Z,14.77
2018-07-04T01:59:32.688Z,14.74
2018-07-04T02:02:12.265Z,14.72
2018-07-04T02:04:51.859Z,14.69
2018-07-04T02:07:31.548Z,14.67
2018-07-04T02:10:11.145Z,14.65
2018-07-04T02:12:50.580Z,14.62
2018-07-04T02:15:30.240Z,14.57
2018-07-04T02:18:09.746Z,14.50
2018-07-04T02:20:49.285Z,14.45
2018-07-04T02:23:28.924Z,14.40
2018-07-04T02:26:08.544Z,14.36
2018-07-04T02:28:48.097Z,14.32
2018-07-04T02:31:27.757Z,14.26
2018-07-04T02:34:07.160Z,14.22
2018-07-04T02:36:46.701Z,14.18
2018-07-04T02:39:26.340Z,14.14
2018-07-04T02:42:05.983Z,14.11
2018-07-04T02:44:45.520Z,14.10
2018-07-04T02:47:27.648Z,14.07
2018-07-04T02:50:07.790Z,14.04
2018-07-04T02:52:47.757Z,14.00
2018-07-04T02:55:27.371Z,13.99
2018-07-04T02:58:07.987Z,13.94
2018-07-04T03:00:47.311Z,13.90
2018-07-04T03:03:27.103Z,13.87
2018-07-04T03:06:06.605Z,13.84
2018-07-04T03:08:46.064Z,13.84
2018-07-04T03:11:25.528Z,13.82
2018-07-04T03:14:05.028Z,13.81
2018-07-04T03:16:44.623Z,13.80
2018-07-04T03:19:23.999Z,13.78
2018-07-04T03:22:03.409Z,13.77
2018-07-04T03:24:43.000Z,13.76
2018-07-04T03:27:22.514Z,13.75
2018-07-04T03:30:01.999Z,13.74
2018-07-04T03:32:41.543Z,13.71
2018-07-04T03:35:21.052Z,13.71
2018-07-04T03:38:00.691Z,13.68
2018-07-04T03:40:40.112Z,13.65
2018-07-04T03:43:19.660Z,13.64
2018-07-04T03:45:59.217Z,13.65
2018-07-04T03:48:38.868Z,13.66
2018-07-04T03:51:18.500Z,13.71
2018-07-04T03:53:57.928Z,13.73
2018-07-04T03:56:37.405Z,13.74
2018-07-04T03:59:16.922Z,13.75
2018-07-04T04:01:56.353Z,13.77
2018-07-04T04:04:35.862Z,13.78
2018-07-04T04:07:15.504Z,13.78
2018-07-04T04:09:54.897Z,13.79
2018-07-04T04:12:34.392Z,13.84
2018-07-04T04:15:13.872Z,13.88
2018-07-04T04:17:53.204Z,13.93
2018-07-04T04:20:32.596Z,13.94
2018-07-04T04:23:12.037Z,13.98
2018-07-04T04:25:51.540Z,14.01
2018-07-04T04:28:31.065Z,14.08
2018-07-04T04:31:10.552Z,14.15
2018-07-04T04:33:50.127Z,14.21
2018-07-04T04:36:29.625Z,14.29
2018-07-04T04:39:09.272Z,14.38
2018-07-04T04:41:48.809Z,14.44
2018-07-04T04:44:28.452Z,14.50
2018-07-04T04:47:07.988Z,14.58
2018-07-04T04:49:47.524Z,14.68
2018-07-04T04:52:27.000Z,14.79
2018-07-04T04:55:06.495Z,14.88
2018-07-04T04:57:45.928Z,15.00
2018-07-04T05:00:25.479Z,15.11
2018-07-04T05:03:04.900Z,15.23
2018-07-04T05:05:44.353Z,15.36
2018-07-04T05:08:23.977Z,15.49
2018-07-04T05:11:03.633Z,15.61
2018-07-04T05:13:43.231Z,15.73
2018-07-04T05:16:22.800Z,15.85
2018-07-04T05:19:02.424Z,15.96
2018-07-04T05:21:41.855Z,16.11
2018-07-04T05:24:21.483Z,16.23
2018-07-04T05:27:01.093Z,16.33
2018-07-04T05:29:40.642Z,16.45
2018-07-04T05:32:20.236Z,16.54
2018-07-04T05:34:59.570Z,16.61
2018-07-04T05:37:39.195Z,16.72
2018-07-04T05:40:18.880Z,16.84
2018-07-04T05:42:58.352Z,16.96
2018-07-04T05:45:37.953Z,17.05
2018-07-04T05:48:17.559Z,17.14
2018-07-04T05:50:57.129Z,17.24
2018-07-04T05:53:36.712Z,17.33
2018-07-04T05:56:16.341Z,17.32
2018-07-04T05:58:55.949Z,17.38
2018-07-04T06:01:35.612Z,17.44
2018-07-04T06:04:15.198Z,17.47
2018-07-04T06:06:54.993Z,17.43
2018-07-04T06:09:34.384Z,17.53
2018-07-04T06:12:13.974Z,17.59
2018-07-04T06:14:53.610Z,17.57
2018-07-04T06:17:33.232Z,17.60
2018-07-04T06:20:12.728Z,17.82
2018-07-04T06:22:52.822Z,17.99
2018-07-04T06:25:32.407Z,18.07
2018-07-04T06:28:12.069Z,18.17
2018-07-04T06:30:51.632Z,18.28
2018-07-04T06:33:31.291Z,18.39
2018-07-04T06:36:10.796Z,18.54
2018-07-04T06:38:37.859Z,18.74
2018-07-04T06:41:04.927Z,18.80
2018-07-04T06:43:31.995Z,18.99
2018-07-04T06:45:59.088Z,19.17
2018-07-04T06:48:26.249Z,19.31
2018-07-04T06:50:53.326Z,19.35
2018-07-04T06:53:20.414Z,19.42
2018-07-04T06:55:47.480Z,19.47
2018-07-04T06:58:14.552Z,19.56
2018-07-04T07:00:41.620Z,19.70
2018-07-04T07:03:21.008Z,19.87
2018-07-04T07:06:00.556Z,20.07
2018-07-04T07:08:40.278Z,20.20
2018-07-04T07:11:19.684Z,20.27
2018-07-04T07:13:59.278Z,20.30
2018-07-04T07:16:38.904Z,20.37
2018-07-04T07:19:18.885Z,20.47
2018-07-04T07:21:58.224Z,20.69
2018-07-04T07:24:37.680Z,20.91
2018-07-04T07:27:17.077Z,21.05
2018-07-04T07:29:56.623Z,21.14
2018-07-04T07:32:36.158Z,21.35
2018-07-04T07:35:15.792Z,21.60
2018-07-04T07:37:55.279Z,21.74
2018-07-04T07:40:34.749Z,21.90
2018-07-04T07:43:14.230Z,22.05
2018-07-04T07:45:53.632Z,22.27
2018-07-04T07:48:33.260Z,22.53
2018-07-04T07:51:12.880Z,22.81
2018-07-04T07:53:52.586Z,23.06
2018-07-04T07:56:32.196Z,23.22
2018-07-04T07:59:11.894Z,23.28
2018-07-04T08:01:51.428Z,23.54
2018-07-04T08:04:30.892Z,23.76
2018-07-04T08:07:10.364Z,23.84
2018-07-04T08:09:50.000Z,23.76
2018-07-04T08:12:29.584Z,23.93
2018-07-04T08:15:09.169Z,24.16
2018-07-04T08:17:48.637Z,24.42
2018-07-04T08:20:28.164Z,24.70
2018-07-04T08:23:07.668Z,24.94
2018-07-04T08:25:47.237Z,25.17
2018-07-04T08:28:26.623Z,25.41
2018-07-04T08:31:06.334Z,25.33
2018-07-04T08:33:45.949Z,25.23
2018-07-04T08:36:25.490Z,25.49
2018-07-04T08:39:04.962Z,25.85
2018-07-04T08:41:44.472Z,26.19
2018-07-04T08:44:24.079Z,26.52
2018-07-04T08:47:03.660Z,26.67
2018-07-04T08:49:43.228Z,26.74
2018-07-04T08:52:22.708Z,26.97
2018-07-04T08:55:02.163Z,27.32
2018-07-04T08:57:41.721Z,27.58
2018-07-04T09:00:21.224Z,27.74
2018-07-04T09:03:00.672Z,27.92
2018-07-04T09:05:40.356Z,28.15
2018-07-04T09:08:19.775Z,28.41
2018-07-04T09:10:59.083Z,28.61
2018-07-04T09:13:38.512Z,28.82
2018-07-04T09:16:18.009Z,29.03
2018-07-04T09:18:57.637Z,29.19
2018-07-04T09:21:37.239Z,29.29
2018-07-04T09:24:16.868Z,29.32
2018-07-04T09:26:56.206Z,29.23
2018-07-04T09:29:35.720Z,29.44
2018-07-04T09:32:15.125Z,29.67
2018-07-04T09:34:54.642Z,29.87
2018-07-04T09:37:34.193Z,30.01
2018-07-04T09:40:13.765Z,30.20
2018-07-04T09:42:53.088Z,30.22
2018-07-04T09:45:32.560Z,30.27
2018-07-04T09:48:12.080Z,30.51
2018-07-04T09:50:51.669Z,30.83
2018-07-04T09:53:31.164Z,31.05
2018-07-04T09:56:10.844Z,31.20
2018-07-04T09:58:50.465Z,31.35
2018-07-04T10:01:30.005Z,31.46
2018-07-04T10:04:09.404Z,31.65
2018-07-04T10:06:49.080Z,31.77
2018-07-04T10:09:28.736Z,31.88
2018-07-04T10:12:08.208Z,31.82
2018-07-04T10:14:47.912Z,31.79
2018-07-04T10:17:27.361Z,31.85
2018-07-04T10:20:06.980Z,32.01
2018-07-04T10:22:46.487Z,32.30
2018-07-04T10:25:26.000Z,32.39
2018-07-04T10:28:05.500Z,32.43
2018-07-04T10:30:44.985Z,32.64
2018-07-04T10:33:24.580Z,32.86
2018-07-04T10:36:04.096Z,32.98
2018-07-04T10:38:43.658Z,33.15
2018-07-04T10:41:23.118Z,33.15
2018-07-04T10:44:02.644Z,33.13
2018-07-04T10:46:42.178Z,33.10
2018-07-04T10:49:21.806Z,33.24
2018-07-04T10:52:01.580Z,33.33
2018-07-04T10:54:41.176Z,33.43
2018-07-04T10:57:20.840Z,33.53
2018-07-04T11:00:00.257Z,33.72
2018-07-04T11:02:39.884Z,33.99
2018-07-04T11:05:19.468Z,34.12
2018-07-04T11:07:59.043Z,34.35
2018-07-04T11:10:38.547Z,34.41
2018-07-04T11:13:18.105Z,34.56
2018-07-04T11:15:57.602Z,34.60
2018-07-04T11:18:37.183Z,34.63
2018-07-04T11:21:16.703Z,34.60
2018-07-04T11:23:56.164Z,34.52
2018-07-04T11:26:35.691Z,34.59
2018-07-04T11:29:15.188Z,34.74
2018-07-04T11:31:54.622Z,34.77
2018-07-04T11:34:34.242Z,34.80
2018-07-04T11:37:13.622Z,34.66
2018-07-04T11:39:53.127Z,34.82
2018-07-04T11:42:32.640Z,35.00
2018-07-04T11:45:12.228Z,35.11
2018-07-04T11:47:39.309Z,35.18
2018-07-04T11:50:06.389Z,35.21
2018-07-04T11:52:33.481Z,35.27
2018-07-04T11:55:00.751Z,35.31
2018-07-04T11:57:27.852Z,35.34
2018-07-04T11:59:54.942Z,35.36
2018-07-04T12:02:22.032Z,35.47
2018-07-04T12:05:01.526Z,35.65
2018-07-04T12:07:28.603Z,35.55
2018-07-04T12:09:55.692Z,35.66
2018-07-04T12:12:22.769Z,35.77
2018-07-04T12:14:49.882Z,35.87
2018-07-04T12:17:16.952Z,35.88
2018-07-04T12:19:44.038Z,35.81
2018-07-04T12:22:11.121Z,35.68
2018-07-04T12:24:38.204Z,35.72
2018-07-04T12:27:05.277Z,35.79
2018-07-04T12:29:32.393Z,35.87
2018-07-04T12:31:59.499Z,35.94
2018-07-04T12:34:26.544Z,36.06
2018-07-04T12:36:53.625Z,36.11
2018-07-04T12:39:20.700Z,36.18
2018-07-04T12:41:47.788Z,36.25
2018-07-04T12:44:14.863Z,36.41
2018-07-04T12:46:41.954Z,36.47
2018-07-04T12:49:09.036Z,36.51
2018-07-04T12:51:36.118Z,36.53
2018-07-04T12:54:08.811Z,36.07
2018-07-04T12:56:48.106Z,35.85
2018-07-04T12:59:27.581Z,35.77
2018-07-04T13:02:07.076Z,35.79
2018-07-04T13:04:46.700Z,35.86
2018-07-04T13:07:26.403Z,35.76
2018-07-04T13:10:05.853Z,35.71
2018-07-04T13:12:45.316Z,35.72
2018-07-04T13:15:24.907Z,35.71
2018-07-04T13:18:04.527Z,35.85
2018-07-04T13:20:44.055Z,36.01
2018-07-04T13:23:23.700Z,36.06
2018-07-04T13:26:03.241Z,36.01
2018-07-04T13:28:42.784Z,35.80
2018-07-04T13:31:22.392Z,35.87
2018-07-04T13:34:02.049Z,35.88
2018-07-04T13:36:41.494Z,35.93
2018-07-04T13:39:21.032Z,36.06
2018-07-04T13:42:00.518Z,36.15
2018-07-04T13:44:39.890Z,36.18
2018-07-04T13:47:19.454Z,36.24
2018-07-04T13:49:58.896Z,36.14
2018-07-04T13:52:38.521Z,36.12
2018-07-04T13:55:18.098Z,36.17
2018-07-04T13:57:57.619Z,36.18
2018-07-04T14:00:37.236Z,36.22
2018-07-04T14:03:16.867Z,36.13
2018-07-04T14:05:56.328Z,36.06
2018-07-04T14:08:35.940Z,35.88
2018-07-04T14:11:15.585Z,35.82
2018-07-04T14:13:55.252Z,35.91
2018-07-04T14:16:35.722Z,35.85
2018-07-04T14:19:15.316Z,35.79
2018-07-04T14:21:54.897Z,35.76
2018-07-04T14:24:34.504Z,35.76
2018-07-04T14:27:14.071Z,35.78
2018-07-04T14:29:53.639Z,35.84
2018-07-04T14:32:33.328Z,35.93
2018-07-04T14:35:12.960Z,35.85
2018-07-04T14:37:52.514Z,35.83
2018-07-04T14:40:32.110Z,35.90
2018-07-04T14:43:11.597Z,35.93
2018-07-04T14:45:51.117Z,35.81
2018-07-04T14:48:30.576Z,35.58
2018-07-04T14:51:10.129Z,35.41
2018-07-04T14:53:49.766Z,35.36
2018-07-04T14:56:29.370Z,35.30
2018-07-04T14:59:08.794Z,35.12
2018-07-04T15:01:48.143Z,35.01
2018-07-04T15:04:27.929Z,35.04
2018-07-04T15:07:07.395Z,35.09
2018-07-04T15:09:47.059Z,35.06
2018-07-04T15:12:26.753Z,35.02
2018-07-04T15:15:06.174Z,34.89
2018-07-04T15:17:45.812Z,34.71
2018-07-04T15:20:25.456Z,34.54
2018-07-04T15:23:04.944Z,34.38
2018-07-04T15:25:44.524Z,34.45
2018-07-04T15:28:23.894Z,34.46
2018-07-04T15:31:03.397Z,34.42
2018-07-04T15:33:42.942Z,34.30
2018-07-04T15:36:22.476Z,34.27
2018-07-04T15:39:02.088Z,34.24
2018-07-04T15:41:41.659Z,34.10
2018-07-04T15:44:21.295Z,33.95
2018-07-04T15:47:00.864Z,33.84
2018-07-04T15:49:40.277Z,33.76
2018-07-04T15:52:19.700Z,33.52
2018-07-04T15:54:59.252Z,33.25
2018-07-04T15:57:38.848Z,33.14
2018-07-04T16:00:18.431Z,32.90
2018-07-04T16:02:58.038Z,32.76
2018-07-04T16:05:37.772Z,32.52
2018-07-04T16:08:17.484Z,32.38
2018-07-04T16:10:57.107Z,32.28
2018-07-04T16:13:36.737Z,32.17
2018-07-04T16:16:16.293Z,32.10
2018-07-04T16:18:55.769Z,31.99
2018-07-04T16:21:35.468Z,31.79
2018-07-04T16:24:15.071Z,31.60
2018-07-04T16:26:54.600Z,31.34
2018-07-04T16:29:34.198Z,31.17
2018-07-04T16:32:13.657Z,31.02
2018-07-04T16:34:53.484Z,30.87
2018-07-04T16:37:33.142Z,30.73
2018-07-04T16:40:12.740Z,30.49
2018-07-04T16:42:52.385Z,30.20
2018-07-04T16:45:31.919Z,30.10
2018-07-04T16:48:11.493Z,29.92
2018-07-04T16:50:51.136Z,29.77
2018-07-04T16:53:30.628Z,29.76
2018-07-04T16:56:10.248Z,29.72
2018-07-04T16:58:49.743Z,29.67
2018-07-04T17:01:29.296Z,29.53
2018-07-04T17:04:08.774Z,29.38
2018-07-04T17:06:48.230Z,29.29
2018-07-04T17:09:27.827Z,29.22
2018-07-04T17:12:07.449Z,29.09
2018-07-04T17:14:47.028Z,29.00
2018-07-04T17:17:26.592Z,28.93
2018-07-04T17:20:06.560Z,28.90
2018-07-04T17:22:45.991Z,28.83
2018-07-04T17:25:25.502Z,28.83
2018-07-04T17:28:05.152Z,28.78
2018-07-04T17:30:44.628Z,28.68
2018-07-04T17:33:24.561Z,28.52
2018-07-04T17:36:03.943Z,28.42
2018-07-04T17:38:43.461Z,28.41
2018-07-04T17:41:23.141Z,28.32
2018-07-04T17:44:02.680Z,28.21
2018-07-04T17:46:42.218Z,28.11
2018-07-04T17:49:21.799Z,28.07
2018-07-04T17:52:01.128Z,28.03
2018-07-04T17:54:40.608Z,28.02
2018-07-04T17:57:20.106Z,27.95
2018-07-04T17:59:59.547Z,27.87
2018-07-04T18:02:38.936Z,27.78
2018-07-04T18:05:18.437Z,27.63
2018-07-04T18:07:57.965Z,27.53
2018-07-04T18:10:37.488Z,27.46
2018-07-04T18:13:17.137Z,27.38
2018-07-04T18:15:56.776Z,27.34
2018-07-04T18:18:36.287Z,27.31
2018-07-04T18:21:21.351Z,27.27
2018-07-04T18:24:00.989Z,27.23
2018-07-04T18:26:40.434Z,27.20
2018-07-04T18:29:20.138Z,27.12
2018-07-04T18:31:59.680Z,27.10
2018-07-04T18:34:39.138Z,27.06
2018-07-04T18:37:18.687Z,27.04
2018-07-04T18:39:58.201Z,27.02
2018-07-04T18:42:37.781Z,26.98
2018-07-04T18:45:17.356Z,26.91
2018-07-04T18:47:56.923Z,26.88
2018-07-04T18:50:36.663Z,26.83
2018-07-04T18:53:16.355Z,26.79
2018-07-04T18:55:56.584Z,26.68
2018-07-04T18:58:36.189Z,26.62
2018-07-04T19:01:16.296Z,26.56
2018-07-04T19:03:55.950Z,26.48
2018-07-04T19:06:35.503Z,26.38
2018-07-04T19:09:14.838Z,26.30
2018-07-04T19:11:54.236Z,26.21
2018-07-04T19:14:33.602Z,26.11
2018-07-04T19:17:12.944Z,26.02
2018-07-04T19:19:52.453Z,25.96
2018-07-04T19:22:32.005Z,25.89
2018-07-04T19:25:11.533Z,25.84
2018-07-04T19:27:51.108Z,25.75
2018-07-04T19:30:30.684Z,25.63
2018-07-04T19:33:09.989Z,25.53
2018-07-04T19:35:49.513Z,25.46
2018-07-04T19:38:28.948Z,25.40
2018-07-04T19:41:08.649Z,25.32
2018-07-04T19:43:48.277Z,25.24
2018-07-04T19:46:27.840Z,25.16
2018-07-04T19:49:07.365Z,25.08
2018-07-04T19:51:46.800Z,24.99
2018-07-04T19:54:26.336Z,24.92
2018-07-04T19:57:06.006Z,24.79
2018-07-04T19:59:45.656Z,24.67
2018-07-04T20:02:25.161Z,24.59
2018-07-04T20:05:04.763Z,24.43
2018-07-04T20:07:44.340Z,24.32
2018-07-04T20:10:23.980Z,24.23
2018-07-04T20:13:03.477Z,24.15
2018-07-04T20:15:42.968Z,24.10
2018-07-04T20:18:22.445Z,24.01
2018-07-04T20:21:01.989Z,23.92
2018-07-04T20:23:41.633Z,23.88
2018-07-04T20:26:21.185Z,23.82
2018-07-04T20:29:00.789Z,23.75
2018-07-04T20:31:40.296Z,23.67
2018-07-04T20:34:19.887Z,23.61
2018-07-04T20:36:59.497Z,23.54
2018-07-04T20:39:39.007Z,23.48
2018-07-04T20:42:18.569Z,23.42
2018-07-04T20:44:58.067Z,23.33
2018-07-04T20:47:37.544Z,23.31
2018-07-04T20:50:17.720Z,23.25
2018-07-04T20:52:57.435Z,23.19
2018-07-04T20:55:37.148Z,23.14
2018-07-04T20:58:16.701Z,23.09
2018-07-04T21:00:56.305Z,23.02
2018-07-04T21:03:35.972Z,22.93
2018-07-04T21:06:15.629Z,22.86
2018-07-04T21:08:55.255Z,22.79
2018-07-04T21:11:34.917Z,22.73
2018-07-04T21:14:14.556Z,22.64
2018-07-04T21:16:54.236Z,22.57
2018-07-04T21:19:33.924Z,22.50
2018-07-04T21:22:13.576Z,22.44
2018-07-04T21:24:53.206Z,22.39
2018-07-04T21:27:32.700Z,22.34
2018-07-04T21:30:12.148Z,22.29
2018-07-04T21:32:51.712Z,22.22
2018-07-04T21:35:31.248Z,22.18
2018-07-04T21:38:10.820Z,22.13
2018-07-04T21:40:50.454Z,22.09
2018-07-04T21:43:29.948Z,22.21
2018-07-04T21:46:09.533Z,22.18
2018-07-04T21:48:48.959Z,22.05
2018-07-04T21:51:28.555Z,21.95
2018-07-04T21:54:08.009Z,21.83
2018-07-04T21:56:47.488Z,21.73
2018-07-04T21:59:26.938Z,21.64
2018-07-04T22:02:06.451Z,21.57
2018-07-04T22:04:45.892Z,21.50
2018-07-04T22:07:25.484Z,21.43
2018-07-04T22:10:05.168Z,21.37
2018-07-04T22:12:44.812Z,21.31
2018-07-04T22:15:24.349Z,21.24
2018-07-04T22:18:03.888Z,21.18
2018-07-04T22:20:43.410Z,21.12
2018-07-04T22:23:23.071Z,21.09
2018-07-04T22:26:02.708Z,21.03
2018-07-04T22:28:42.304Z,20.96
2018-07-04T22:31:21.860Z,20.89
2018-07-04T22:34:01.512Z,20.82
2018-07-04T22:36:41.067Z,20.76
2018-07-04T22:39:20.613Z,20.71
2018-07-04T22:42:00.172Z,20.67
2018-07-04T22:44:39.776Z,20.63
2018-07-04T22:47:19.428Z,20.57
2018-07-04T22:49:59.032Z,20.51
2018-07-04T22:52:38.681Z,20.45
2018-07-04T22:55:18.183Z,20.40
2018-07-04T22:57:57.640Z,20.36
2018-07-04T23:00:37.136Z,20.28
2018-07-04T23:03:16.552Z,20.20
2018-07-04T23:05:56.114Z,20.12
2018-07-04T23:08:35.615Z,20.06
2018-07-04T23:11:15.240Z,20.01
2018-07-04T23:13:54.865Z,19.95
2018-07-04T23:16:34.427Z,19.89
2018-07-04T23:19:13.868Z,19.82
2018-07-04T23:21:53.455Z,19.76
2018-07-04T23:24:33.072Z,19.70
2018-07-04T23:27:12.637Z,19.62
2018-07-04T23:29:52.179Z,19.56
2018-07-04T23:32:31.820Z,19.49
2018-07-04T23:35:11.335Z,19.43
2018-07-04T23:37:51.008Z,19.38
2018-07-04T23:40:30.516Z,19.32
2018-07-04T23:43:09.996Z,19.25
2018-07-04T23:45:49.620Z,19.21
2018-07-04T23:48:29.109Z,19.15
2018-07-04T23:51:08.677Z,19.11
2018-07-04T23:53:48.256Z,19.07
2018-07-04T23:56:27.808Z,19.02
2018-07-04T23:59:07.483Z,18.97
